Time;durP1;ratioP1;P1;durP2;ratioP2;P2;SDS_P1;SDS_P2;PMS_P1;PMS_P2;Temp;Humidity;BMP_temperature;BMP_pressure;BME280_temperature;BME280_humidity;BME280_pressure;Samples;Min_cycle;Max_cycle;Signal;HPM_P1;HPM_P2
2023/10/17 00:01:33;;;;;;;5.03;2.60;;;8.30;80.10;;;;;;9170044;19;20019;-71
2023/10/17 00:04:41;;;;;;;9.02;3.00;;;8.30;80.10;;;;;;9170118;19;20020;-71
2023/10/17 00:07:48;;;;;;;14.15;3.33;;;8.30;80.20;;;;;;9169856;19;20021;-75
2023/10/17 00:11:06;;;;;;;5.07;3.35;;;8.20;80.10;;;;;;9171515;19;20021;-75
2023/10/17 00:14:11;;;;;;;6.22;3.10;;;8.20;80.10;;;;;;9169027;19;20019;-72
2023/10/17 00:17:19;;;;;;;5.97;3.20;;;8.20;80.10;;;;;;9166699;19;20029;-74
2023/10/17 00:20:25;;;;;;;6.63;3.17;;;8.20;80.10;;;;;;9165158;19;20357;-71
2023/10/17 00:23:32;;;;;;;7.20;3.50;;;8.20;80.40;;;;;;9167274;19;20018;-73
2023/10/17 00:26:41;;;;;;;3.70;2.80;;;8.10;80.10;;;;;;9167231;19;20047;-75
2023/10/17 00:29:49;;;;;;;5.50;3.10;;;8.10;80.10;;;;;;9167466;19;20018;-75
2023/10/17 00:32:55;;;;;;;4.60;2.75;;;8.10;80.10;;;;;;9168722;19;20014;-72
2023/10/17 00:36:05;;;;;;;6.13;3.38;;;8.00;80.20;;;;;;9169328;19;20033;-74
2023/10/17 00:39:16;;;;;;;6.32;3.45;;;8.00;80.20;;;;;;9169112;19;20491;-74
2023/10/17 00:42:32;;;;;;;6.03;3.08;;;8.00;80.20;;;;;;9164173;19;20523;-71
2023/10/17 00:45:37;;;;;;;5.55;3.53;;;8.00;80.20;;;;;;9171251;19;20360;-73
2023/10/17 00:48:47;;;;;;;7.35;3.60;;;8.00;80.20;;;;;;9168701;19;20018;-71
2023/10/17 00:51:55;;;;;;;7.82;3.83;;;7.90;80.30;;;;;;9168917;19;20384;-74
2023/10/17 00:55:04;;;;;;;6.80;3.50;;;7.90;80.30;;;;;;9169936;19;20033;-74
2023/10/17 00:58:12;;;;;;;6.68;3.80;;;7.90;80.30;;;;;;9169859;19;20089;-73
2023/10/17 01:01:20;;;;;;;7.80;3.42;;;7.80;80.40;;;;;;9169280;19;20014;-73
2023/10/17 01:04:26;;;;;;;9.63;4.00;;;7.80;80.40;;;;;;9168513;19;20455;-71
2023/10/17 01:07:34;;;;;;;10.70;3.42;;;7.80;80.40;;;;;;9167279;19;20475;-72
2023/10/17 01:10:41;;;;;;;9.35;3.78;;;7.80;80.40;;;;;;9170706;19;20026;-74
2023/10/17 01:13:52;;;;;;;6.38;3.83;;;7.80;80.50;;;;;;9165133;19;20016;-72
2023/10/17 01:16:58;;;;;;;13.38;4.85;;;7.80;80.60;;;;;;9168680;19;20014;-75
2023/10/17 01:20:14;;;;;;;7.07;4.10;;;7.80;80.70;;;;;;9169318;19;20327;-72
2023/10/17 01:23:21;;;;;;;8.13;3.58;;;7.80;80.70;;;;;;9168977;19;20011;-73
2023/10/17 01:26:37;;;;;;;9.80;4.57;;;7.80;80.80;;;;;;9166298;19;20013;-73
2023/10/17 01:29:44;;;;;;;10.15;4.70;;;7.80;80.80;;;;;;9167170;19;20018;-74
2023/10/17 01:32:52;;;;;;;11.52;4.32;;;7.80;80.80;;;;;;9168558;19;20015;-75
2023/10/17 01:36:00;;;;;;;8.45;4.18;;;7.80;80.90;;;;;;9167189;19;20226;-75
2023/10/17 01:39:08;;;;;;;8.07;4.07;;;7.80;80.90;;;;;;9169183;19;20466;-73
2023/10/17 01:42:16;;;;;;;10.18;3.80;;;7.80;80.90;;;;;;9163729;19;20024;-74
2023/10/17 01:45:25;;;;;;;8.30;4.13;;;7.80;81.00;;;;;;9167733;19;20056;-72
2023/10/17 01:48:31;;;;;;;10.27;4.32;;;7.80;81.00;;;;;;9170532;19;20010;-74
2023/10/17 01:51:41;;;;;;;7.80;4.00;;;7.80;81.00;;;;;;9177688;19;20025;-75
2023/10/17 01:54:48;;;;;;;5.97;3.80;;;7.80;81.00;;;;;;9166244;19;20035;-72
2023/10/17 01:57:59;;;;;;;9.43;3.85;;;7.90;81.20;;;;;;9166079;19;20015;-73
2023/10/17 02:01:10;;;;;;;8.05;4.03;;;7.90;81.20;;;;;;9166157;19;20025;-74
2023/10/17 02:04:22;;;;;;;9.27;4.82;;;7.90;81.20;;;;;;9163755;19;20023;-74
2023/10/17 02:07:27;;;;;;;10.48;4.18;;;7.90;81.20;;;;;;9167052;19;20026;-70
2023/10/17 02:10:36;;;;;;;6.90;3.90;;;7.90;81.20;;;;;;9165485;19;20391;-74
2023/10/17 02:13:48;;;;;;;8.38;4.00;;;7.90;81.20;;;;;;9165604;19;20140;-74
2023/10/17 02:16:56;;;;;;;7.88;4.07;;;7.90;81.30;;;;;;9167105;19;20018;-73
2023/10/17 02:20:09;;;;;;;6.28;3.53;;;7.90;81.20;;;;;;9164107;19;20471;-71
2023/10/17 02:23:25;;;;;;;8.82;4.00;;;8.00;81.20;;;;;;9165639;19;20018;-73
2023/10/17 02:26:33;;;;;;;11.02;3.90;;;8.00;81.20;;;;;;9165878;19;20024;-73
2023/10/17 02:29:46;;;;;;;7.63;4.32;;;8.00;81.30;;;;;;9163272;19;20779;-71
2023/10/17 02:32:54;;;;;;;9.25;4.18;;;8.00;81.30;;;;;;9164153;19;20010;-73
2023/10/17 02:36:09;;;;;;;8.23;4.13;;;8.00;81.60;;;;;;9163831;19;20014;-74
2023/10/17 02:39:14;;;;;;;9.00;3.40;;;8.00;81.20;;;;;;9162585;19;20325;-72
2023/10/17 02:42:22;;;;;;;7.75;3.53;;;7.90;81.10;;;;;;9157597;19;20015;-73
2023/10/17 02:45:30;;;;;;;8.43;4.05;;;8.00;81.20;;;;;;9165820;19;20497;-71
2023/10/17 02:48:42;;;;;;;8.75;4.43;;;8.00;81.30;;;;;;9165364;19;20045;-71
2023/10/17 02:51:48;;;;;;;12.77;4.00;;;8.00;81.20;;;;;;9163380;19;20026;-71
2023/10/17 02:55:00;;;;;;;9.02;3.80;;;7.90;81.20;;;;;;9158605;19;20019;-74
2023/10/17 02:58:06;;;;;;;5.65;3.65;;;7.90;81.20;;;;;;9164612;19;20014;-74
2023/10/17 03:01:16;;;;;;;8.32;4.85;;;7.90;81.20;;;;;;9164622;19;20014;-75
2023/10/17 03:04:26;;;;;;;6.97;3.67;;;7.90;81.20;;;;;;9162791;19;20022;-76
2023/10/17 03:07:34;;;;;;;8.65;4.40;;;7.90;81.30;;;;;;9161832;19;20022;-75
2023/10/17 03:10:40;;;;;;;6.43;4.25;;;7.90;81.20;;;;;;9165219;19;20791;-75
2023/10/17 03:13:48;;;;;;;9.57;4.03;;;7.90;81.30;;;;;;9163389;19;20015;-71
2023/10/17 03:16:54;;;;;;;8.43;3.92;;;7.90;81.30;;;;;;9163562;19;20015;-73
2023/10/17 03:20:36;;;;;;;12.85;4.40;;;7.90;81.30;;;;;;9161982;19;20010;-71
2023/10/17 03:23:46;;;;;;;8.57;4.23;;;7.90;81.30;;;;;;9164349;19;20014;-75
2023/10/17 03:27:03;;;;;;;8.50;4.18;;;7.90;81.30;;;;;;9164156;19;20409;-74
2023/10/17 03:30:14;;;;;;;11.65;5.05;;;7.90;81.30;;;;;;9163998;19;20024;-73
2023/10/17 03:33:29;;;;;;;5.90;4.22;;;7.90;81.40;;;;;;9163904;19;20010;-76
2023/10/17 03:36:48;;;;;;;11.27;4.57;;;7.90;81.40;;;;;;9163705;19;20025;-70
2023/10/17 03:39:58;;;;;;;7.82;4.57;;;7.80;81.40;;;;;;9163201;19;20356;-69
2023/10/17 03:43:11;;;;;;;7.65;4.35;;;7.90;81.50;;;;;;9160452;19;20014;-72
2023/10/17 03:46:24;;;;;;;9.40;4.75;;;7.90;81.50;;;;;;9163953;19;20022;-75
2023/10/17 03:49:36;;;;;;;6.90;4.40;;;7.90;81.50;;;;;;9163052;19;20018;-77
2023/10/17 03:52:43;;;;;;;;;;;7.90;81.50;;;;;;9163006;19;20025;-74
2023/10/17 03:55:50;;;;;;;6.85;4.72;;;7.80;81.40;;;;;;9161727;19;20324;-74
2023/10/17 03:59:16;;;;;;;7.60;4.00;;;7.90;81.40;;;;;;9162576;19;20015;-71
2023/10/17 04:02:22;;;;;;;11.30;5.10;;;7.90;81.40;;;;;;9158762;19;20022;-75
2023/10/17 04:05:33;;;;;;;10.45;4.82;;;7.80;81.40;;;;;;9159317;19;20130;-71
2023/10/17 04:08:48;;;;;;;8.75;5.03;;;7.80;81.40;;;;;;9170376;19;20082;-75
2023/10/17 04:11:58;;;;;;;16.25;5.45;;;7.80;81.60;;;;;;9170593;19;20352;-75
2023/10/17 04:15:04;;;;;;;7.10;5.10;;;7.80;81.50;;;;;;9170351;19;20107;-71
2023/10/17 04:18:14;;;;;;;9.20;5.05;;;7.80;81.50;;;;;;9169531;19;20350;-73
2023/10/17 04:21:26;;;;;;;9.63;5.63;;;7.80;81.50;;;;;;9171328;19;20056;-75
2023/10/17 04:24:37;;;;;;;9.93;5.65;;;7.80;81.60;;;;;;9170986;19;20031;-71
2023/10/17 04:27:45;;;;;;;15.50;6.10;;;7.80;81.60;;;;;;9171392;19;20476;-75
2023/10/17 04:30:56;;;;;;;12.13;6.00;;;7.80;81.60;;;;;;9168999;19;20022;-74
2023/10/17 04:34:06;;;;;;;10.23;5.55;;;7.80;81.60;;;;;;9172479;19;20025;-72
2023/10/17 04:37:24;;;;;;;7.25;5.75;;;7.80;81.60;;;;;;9168712;19;20030;-75
2023/10/17 04:40:37;;;;;;;10.20;6.20;;;7.80;81.60;;;;;;9169451;19;20442;-74
2023/10/17 04:43:54;;;;;;;8.68;5.40;;;7.70;81.80;;;;;;9163746;19;20026;-73
2023/10/17 04:47:25;;;;;;;8.68;5.50;;;7.70;81.70;;;;;;9167316;19;20014;-74
2023/10/17 04:50:40;;;;;;;10.05;5.63;;;7.70;81.60;;;;;;9168391;19;20019;-72
2023/10/17 04:53:48;;;;;;;8.18;5.15;;;7.70;81.60;;;;;;9170920;19;20769;-74
2023/10/17 04:56:59;;;;;;;10.48;5.22;;;7.70;81.70;;;;;;9166014;19;20025;-71
2023/10/17 05:00:10;;;;;;;10.90;5.95;;;7.70;81.60;;;;;;9170555;19;20409;-75
2023/10/17 05:03:26;;;;;;;7.60;5.50;;;7.70;81.80;;;;;;9170780;19;20018;-74
2023/10/17 06:19:58;;;;;;;16.27;6.22;;;7.40;81.90;;;;;;9166364;19;20076;-73
2023/10/17 06:33:22;;;;;;;13.30;5.22;;;7.30;81.90;;;;;;9164589;19;20480;-75
2023/10/17 06:36:30;;;;;;;10.82;5.88;;;7.30;82.00;;;;;;9165306;19;20037;-76
2023/10/17 06:39:46;;;;;;;13.88;5.90;;;7.30;82.00;;;;;;9163239;19;20387;-74
2023/10/17 06:42:59;;;;;;;9.18;5.80;;;7.30;82.30;;;;;;9162278;19;20361;-75
2023/10/17 06:46:05;;;;;;;11.80;6.28;;;7.40;85.40;;;;;;9165273;19;20030;-74
2023/10/17 06:49:30;;;;;;;10.95;6.30;;;7.30;82.30;;;;;;9167360;19;20018;-71
2023/10/17 06:52:40;;;;;;;13.18;6.82;;;7.30;83.20;;;;;;9165525;19;21041;-73
2023/10/17 06:55:52;;;;;;;11.10;5.93;;;7.30;88.60;;;;;;9162440;19;20029;-72
2023/10/17 06:59:04;;;;;;;13.07;7.03;;;8.00;83.00;;;;;;9162338;19;20029;-77
2023/10/17 07:02:18;;;;;;;;;;;7.20;82.50;;;;;;9158862;19;20010;-73
2023/10/17 07:05:26;;;;;;;12.18;7.38;;;7.30;86.70;;;;;;9158199;19;19965;-73
2023/10/17 07:08:38;;;;;;;11.70;7.55;;;7.20;81.90;;;;;;9157616;19;20263;-75
2023/10/17 07:11:47;;;;;;;15.85;8.63;;;7.30;83.70;;;;;;9162882;19;20026;-72
2023/10/17 07:14:56;;;;;;;14.93;7.75;;;7.20;82.10;;;;;;9162626;19;20006;-74
2023/10/17 07:21:27;;;;;;;11.27;7.18;;;7.20;82.20;;;;;;9159342;19;20011;-73
2023/10/17 07:24:35;;;;;;;13.73;7.55;;;7.30;82.30;;;;;;9161427;19;20022;-76
2023/10/17 07:27:45;;;;;;;15.32;7.82;;;7.30;82.40;;;;;;9163594;19;20259;-72
2023/10/17 07:30:57;;;;;;;12.40;7.88;;;7.30;82.40;;;;;;9162464;19;20018;-73
2023/10/17 07:34:21;;;;;;;10.07;7.38;;;7.30;82.50;;;;;;9162840;19;20107;-76
2023/10/17 07:37:34;;;;;;;14.68;7.30;;;7.30;85.40;;;;;;9161471;19;20488;-71
2023/10/17 07:40:58;;;;;;;12.15;6.65;;;7.40;82.60;;;;;;9161869;19;20484;-75
2023/10/17 07:44:09;;;;;;;15.55;6.97;;;7.50;82.70;;;;;;9167104;19;20369;-75
2023/10/17 07:47:21;;;;;;;11.63;7.07;;;7.50;82.80;;;;;;9168814;19;20078;-73
2023/10/17 07:50:27;;;;;;;12.15;6.43;;;7.60;83.30;;;;;;9171728;19;20020;-77
2023/10/17 07:53:45;;;;;;;14.30;6.72;;;7.70;83.10;;;;;;9170375;19;20017;-72
2023/10/17 07:56:52;;;;;;;10.75;5.88;;;7.80;83.20;;;;;;9169544;19;20044;-75
2023/10/17 08:00:00;;;;;;;13.68;5.65;;;7.90;83.20;;;;;;9173568;19;20798;-76
2023/10/17 08:03:14;;;;;;;12.82;6.05;;;8.10;83.30;;;;;;9173882;19;20014;-77
2023/10/17 08:06:28;;;;;;;10.77;5.40;;;8.10;83.10;;;;;;9169731;19;20364;-72
2023/10/17 08:09:41;;;;;;;9.63;4.38;;;8.30;83.20;;;;;;9162498;19;20019;-75
2023/10/17 08:12:48;;;;;;;11.65;4.78;;;8.40;83.20;;;;;;9168344;19;20101;-73
2023/10/17 08:15:54;;;;;;;11.30;5.22;;;8.50;83.10;;;;;;9166935;19;20031;-75
2023/10/17 08:19:12;;;;;;;12.27;3.92;;;8.60;83.10;;;;;;9166953;19;20024;-73
2023/10/17 08:22:20;;;;;;;10.00;4.07;;;8.70;83.10;;;;;;9168366;19;20042;-73
2023/10/17 08:25:30;;;;;;;8.77;3.70;;;8.80;83.00;;;;;;9167999;19;20015;-75
2023/10/17 08:28:46;;;;;;;6.03;3.60;;;8.90;82.90;;;;;;9165748;19;20019;-71
2023/10/17 08:32:02;;;;;;;5.80;3.38;;;9.10;83.70;;;;;;9165529;19;20017;-72
2023/10/17 08:35:19;;;;;;;6.80;2.75;;;9.10;90.50;;;;;;9169513;19;21023;-72
2023/10/17 08:38:26;;;;;;;7.55;2.92;;;9.20;82.70;;;;;;9162543;19;20018;-76
2023/10/17 08:41:37;;;;;;;6.65;2.47;;;9.30;82.60;;;;;;9164638;19;20027;-77
2023/10/17 08:44:46;;;;;;;5.05;2.90;;;9.40;82.60;;;;;;9167685;19;20021;-76
2023/10/17 08:47:52;;;;;;;4.22;2.30;;;9.50;82.50;;;;;;9167891;19;20047;-74
2023/10/17 08:51:00;;;;;;;6.40;2.83;;;9.50;82.40;;;;;;9165275;19;20476;-75
2023/10/17 08:54:12;;;;;;;5.57;1.95;;;9.60;82.40;;;;;;9166949;19;20030;-71
2023/10/17 08:57:23;;;;;;;4.78;2.30;;;9.70;82.30;;;;;;9166754;19;20408;-71
2023/10/17 09:03:50;;;;;;;9.35;2.40;;;9.80;82.10;;;;;;9165953;19;20493;-73
2023/10/17 09:07:05;;;;;;;4.85;2.38;;;9.80;82.10;;;;;;9166412;19;20014;-76
2023/10/17 09:10:20;;;;;;;8.93;2.00;;;10.00;82.10;;;;;;9166556;19;20026;-69
2023/10/17 09:17:10;;;;;;;4.50;1.60;;;10.00;81.80;;;;;;9168327;19;20015;-73
2023/10/17 09:20:37;;;;;;;6.40;1.88;;;10.10;81.80;;;;;;9166778;19;20953;-70
2023/10/17 09:23:45;;;;;;;6.07;1.65;;;10.20;81.80;;;;;;9169509;19;20015;-74
2023/10/17 09:26:51;;;;;;;13.27;1.88;;;10.30;81.60;;;;;;9168774;19;20018;-74
2023/10/17 09:30:01;;;;;;;4.18;1.38;;;10.40;81.50;;;;;;9167957;19;20498;-73
2023/10/17 09:33:07;;;;;;;4.60;1.30;;;10.50;81.40;;;;;;9167411;19;20011;-73
2023/10/17 09:36:17;;;;;;;6.88;1.73;;;10.50;81.30;;;;;;9164715;19;20021;-73
2023/10/17 09:39:27;;;;;;;4.40;1.40;;;10.60;81.10;;;;;;9165683;19;20378;-75
2023/10/17 09:42:47;;;;;;;5.35;1.77;;;10.70;81.00;;;;;;9162979;19;20498;-73
2023/10/17 09:45:58;;;;;;;7.85;1.50;;;10.90;81.00;;;;;;9169886;19;20024;-74
2023/10/17 09:49:09;;;;;;;3.58;1.50;;;11.00;81.00;;;;;;9168163;19;20014;-75
2023/10/17 09:52:15;;;;;;;5.78;1.40;;;11.10;80.90;;;;;;9166474;19;20014;-73
2023/10/17 09:55:26;;;;;;;5.45;1.40;;;11.30;80.80;;;;;;9168017;19;20014;-75
2023/10/17 09:58:37;;;;;;;3.72;1.65;;;11.50;80.60;;;;;;9164382;19;20022;-73
2023/10/17 10:01:50;;;;;;;9.23;2.13;;;11.60;80.40;;;;;;9164912;19;20468;-73
2023/10/17 10:04:56;;;;;;;6.88;1.90;;;11.70;80.30;;;;;;9164979;19;20086;-73
2023/10/17 10:08:05;;;;;;;8.05;2.28;;;12.00;80.20;;;;;;9165138;19;20007;-75
2023/10/17 10:11:11;;;;;;;13.07;1.60;;;12.10;80.00;;;;;;9166477;19;20416;-74
2023/10/17 10:14:36;;;;;;;6.35;1.67;;;12.30;79.70;;;;;;9166149;19;20368;-72
2023/10/17 10:17:50;;;;;;;4.70;1.02;;;12.40;79.50;;;;;;9164604;19;20021;-76
2023/10/17 10:20:57;;;;;;;5.75;1.02;;;12.60;79.10;;;;;;9164609;19;20018;-75
2023/10/17 10:24:03;;;;;;;5.95;1.00;;;12.70;79.10;;;;;;9164622;19;20043;-73
2023/10/17 10:27:26;;;;;;;3.95;1.38;;;12.80;78.90;;;;;;9167123;19;20015;-73
2023/10/17 10:30:40;;;;;;;4.70;1.33;;;13.00;78.60;;;;;;9161575;19;20074;-74
2023/10/17 10:33:51;;;;;;;4.90;1.08;;;13.10;78.70;;;;;;9165278;19;20017;-76
2023/10/17 10:37:00;;;;;;;5.28;0.95;;;13.20;80.00;;;;;;9162957;19;20018;-72
2023/10/17 10:40:16;;;;;;;4.32;1.38;;;13.40;79.10;;;;;;9162280;19;20014;-74
2023/10/17 10:43:22;;;;;;;2.00;0.85;;;13.60;82.70;;;;;;9155479;19;20389;-77
2023/10/17 10:46:33;;;;;;;3.22;0.90;;;13.60;78.40;;;;;;9161627;19;20022;-77
2023/10/17 10:49:41;;;;;;;7.15;0.95;;;14.40;82.90;;;;;;9163594;19;20019;-71
2023/10/17 10:52:49;;;;;;;21.42;2.17;;;13.80;77.30;;;;;;9163118;19;20024;-72
2023/10/17 10:55:55;;;;;;;2.75;0.90;;;13.80;77.20;;;;;;9161331;19;20011;-73
2023/10/17 10:59:04;;;;;;;1.33;0.70;;;14.00;77.20;;;;;;9163115;19;20486;-73
2023/10/17 11:02:10;;;;;;;2.25;0.75;;;14.10;77.00;;;;;;9162473;19;20047;-71
2023/10/17 11:05:20;;;;;;;0.80;0.60;;;14.20;76.90;;;;;;9163066;19;20358;-72
2023/10/17 11:08:27;;;;;;;5.00;2.53;;;14.30;76.80;;;;;;9165259;19;20024;-71
2023/10/17 11:11:35;;;;;;;5.05;1.20;;;14.60;81.40;;;;;;9166797;19;20579;-72
2023/10/17 11:14:40;;;;;;;2.88;0.90;;;14.60;82.20;;;;;;9163469;19;20019;-71
2023/10/17 11:18:09;;;;;;;5.93;0.95;;;14.70;80.30;;;;;;9157618;19;20033;-71
2023/10/17 11:21:20;;;;;;;3.28;1.02;;;14.70;78.50;;;;;;9162022;19;20026;-72
2023/10/17 11:24:29;;;;;;;4.27;1.03;;;14.80;75.30;;;;;;9159450;19;20920;-71
2023/10/17 11:27:38;;;;;;;5.03;1.17;;;14.80;75.40;;;;;;9159252;19;20372;-72
2023/10/17 11:30:48;;;;;;;4.05;1.17;;;14.90;75.10;;;;;;9166023;19;20017;-72
2023/10/17 11:33:59;;;;;;;4.13;0.95;;;14.90;75.00;;;;;;9165835;19;20543;-72
2023/10/17 11:37:11;;;;;;;6.03;1.08;;;15.00;79.50;;;;;;9164473;19;20033;-72
2023/10/17 11:40:32;;;;;;;3.45;1.08;;;15.00;82.70;;;;;;9162991;19;20018;-72
2023/10/17 11:43:50;;;;;;;6.82;1.85;;;15.10;76.20;;;;;;9159090;19;20010;-72
2023/10/17 11:47:02;;;;;;;7.30;1.83;;;15.00;74.20;;;;;;9160667;19;20014;-72
2023/10/17 11:50:11;;;;;;;5.70;1.77;;;15.00;74.20;;;;;;9164382;19;20010;-71
2023/10/17 11:53:19;;;;;;;11.85;2.30;;;15.00;74.20;;;;;;9163803;19;20062;-73
2023/10/17 11:56:26;;;;;;;5.30;1.90;;;15.10;74.20;;;;;;9162545;19;20049;-71
2023/10/17 11:59:31;;;;;;;6.18;1.33;;;15.20;80.00;;;;;;9161223;19;20030;-71
2023/10/17 12:02:41;;;;;;;2.35;1.52;;;15.10;74.10;;;;;;9162151;19;20823;-71
2023/10/17 12:05:48;;;;;;;5.22;1.10;;;15.10;74.00;;;;;;9161977;19;20019;-70
2023/10/17 12:08:59;;;;;;;2.88;1.15;;;15.10;73.50;;;;;;9161339;19;21068;-71
2023/10/17 12:12:06;;;;;;;4.65;1.50;;;15.10;73.10;;;;;;9163466;19;20360;-70
2023/10/17 12:15:20;;;;;;;8.02;2.35;;;15.10;73.80;;;;;;9163017;19;20017;-72
2023/10/17 12:18:27;;;;;;;5.25;2.20;;;15.10;73.20;;;;;;9160496;19;20513;-71
2023/10/17 12:21:34;;;;;;;4.43;1.70;;;15.10;73.00;;;;;;9158877;19;20337;-71
2023/10/17 12:24:42;;;;;;;5.95;1.50;;;15.10;73.00;;;;;;9156758;19;20492;-71
2023/10/17 12:27:52;;;;;;;10.20;1.75;;;15.10;72.80;;;;;;9163261;19;20029;-72
2023/10/17 12:30:58;;;;;;;13.00;3.08;;;15.10;75.60;;;;;;9172366;19;20014;-72
2023/10/17 12:34:07;;;;;;;11.52;3.30;;;15.10;73.20;;;;;;9169308;19;20014;-71
2023/10/17 12:37:14;;;;;;;4.20;1.45;;;15.30;73.40;;;;;;9171122;19;20026;-72
2023/10/17 12:40:24;;;;;;;6.97;1.50;;;15.00;72.50;;;;;;9167140;19;20021;-71
2023/10/17 12:43:29;;;;;;;4.60;1.73;;;15.10;72.40;;;;;;9165923;19;20022;-71
2023/10/17 12:46:36;;;;;;;7.40;2.92;;;15.10;72.40;;;;;;9167376;19;20014;-71
2023/10/17 12:49:42;;;;;;;3.15;1.42;;;15.00;72.30;;;;;;9171014;19;20022;-71
2023/10/17 12:52:50;;;;;;;5.00;2.70;;;15.00;72.30;;;;;;9166754;19;20774;-72
2023/10/17 12:55:57;;;;;;;5.07;1.65;;;14.90;72.20;;;;;;9170503;19;20052;-71
2023/10/17 12:59:07;;;;;;;3.78;1.00;;;14.90;72.20;;;;;;9168949;19;20022;-71
2023/10/17 13:02:13;;;;;;;5.43;1.30;;;14.80;72.10;;;;;;9170152;19;20064;-70
2023/10/17 13:05:20;;;;;;;5.30;2.00;;;14.70;72.10;;;;;;9169796;19;20021;-71
2023/10/17 13:08:26;;;;;;;5.93;1.60;;;14.70;72.10;;;;;;9169694;19;20025;-76
2023/10/17 13:11:36;;;;;;;6.50;1.67;;;14.50;72.10;;;;;;9167296;19;20025;-74
2023/10/17 13:14:42;;;;;;;12.13;2.58;;;14.50;72.10;;;;;;9173016;19;20038;-74
2023/10/17 13:17:54;;;;;;;5.97;1.50;;;14.40;72.20;;;;;;9170686;19;20011;-74
2023/10/17 13:21:06;;;;;;;9.50;1.98;;;14.30;72.30;;;;;;9170121;19;20014;-74
2023/10/17 13:24:17;;;;;;;6.07;1.55;;;14.20;72.30;;;;;;9172508;19;20428;-73
2023/10/17 13:27:28;;;;;;;6.97;1.33;;;14.10;72.40;;;;;;9171440;19;20055;-73
2023/10/17 13:30:36;;;;;;;3.70;1.60;;;14.00;72.30;;;;;;9169612;19;20018;-72
2023/10/17 13:33:42;;;;;;;2.97;0.95;;;14.00;72.40;;;;;;9169736;19;20022;-75
2023/10/17 13:36:50;;;;;;;2.90;1.30;;;13.70;72.30;;;;;;9166718;19;20691;-73
2023/10/17 13:39:55;;;;;;;6.30;1.45;;;13.80;72.50;;;;;;9163938;19;20094;-76
2023/10/17 13:43:06;;;;;;;8.25;1.48;;;13.80;72.60;;;;;;9163138;19;20389;-74
2023/10/17 13:46:14;;;;;;;5.78;1.27;;;13.70;72.50;;;;;;9166163;19;20014;-74
2023/10/17 13:49:22;;;;;;;3.88;1.08;;;13.70;72.60;;;;;;9169894;19;20021;-75
2023/10/17 13:52:28;;;;;;;3.50;2.28;;;13.60;72.50;;;;;;9167003;19;20109;-75
2023/10/17 13:55:38;;;;;;;2.17;0.82;;;13.60;72.60;;;;;;9166484;19;20030;-73
2023/10/17 13:58:46;;;;;;;13.20;1.55;;;13.50;72.50;;;;;;9168228;19;20019;-75
2023/10/17 14:01:55;;;;;;;4.85;1.20;;;13.50;72.50;;;;;;9164957;19;20014;-74
2023/10/17 14:05:00;;;;;;;4.88;1.58;;;13.50;72.60;;;;;;9166666;19;20019;-74
2023/10/17 14:08:09;;;;;;;4.10;1.13;;;13.40;72.70;;;;;;9164410;19;20010;-73
2023/10/17 14:11:17;;;;;;;6.43;1.40;;;13.40;72.70;;;;;;9167501;19;20007;-74
2023/10/17 14:14:30;;;;;;;7.75;1.92;;;13.40;72.80;;;;;;9165905;19;20014;-75
2023/10/17 14:17:35;;;;;;;4.20;1.40;;;13.30;72.70;;;;;;9164981;19;20090;-72
2023/10/17 14:21:04;;;;;;;4.50;1.45;;;13.30;72.70;;;;;;9164420;19;20021;-72
2023/10/17 14:24:10;;;;;;;2.35;0.95;;;13.30;72.70;;;;;;9165787;19;20026;-72
2023/10/17 14:27:20;;;;;;;6.07;1.35;;;13.20;72.70;;;;;;9162779;19;20013;-71
2023/10/17 14:30:28;;;;;;;2.70;0.90;;;13.20;72.70;;;;;;9165129;19;20817;-73
2023/10/17 14:33:36;;;;;;;8.30;2.17;;;13.10;72.70;;;;;;9165696;19;20018;-75
2023/10/17 14:36:44;;;;;;;5.30;1.55;;;13.10;72.70;;;;;;9166532;19;20408;-72
2023/10/17 14:39:51;;;;;;;6.85;1.67;;;13.10;72.70;;;;;;9167216;19;20029;-72
2023/10/17 14:42:57;;;;;;;3.75;1.33;;;13.10;72.70;;;;;;9165060;19;20488;-73
2023/10/17 14:46:08;;;;;;;3.13;1.27;;;13.10;72.80;;;;;;9166612;19;20014;-74
2023/10/17 14:49:14;;;;;;;4.32;1.30;;;13.00;72.70;;;;;;9163030;19;20379;-73
2023/10/17 14:52:21;;;;;;;11.52;1.50;;;13.00;72.80;;;;;;9163094;19;20482;-72
2023/10/17 14:55:28;;;;;;;9.73;1.95;;;13.00;73.00;;;;;;9160205;19;20025;-72
2023/10/17 14:58:35;;;;;;;10.43;1.52;;;12.90;73.00;;;;;;9162497;19;20033;-74
2023/10/17 15:01:46;;;;;;;6.30;1.98;;;13.00;72.90;;;;;;9163798;19;20022;-73
2023/10/17 15:04:53;;;;;;;3.75;1.40;;;12.90;72.90;;;;;;9163857;19;20026;-74
2023/10/17 15:07:59;;;;;;;8.20;1.88;;;12.90;72.80;;;;;;9165056;19;20043;-73
2023/10/17 15:11:10;;;;;;;3.95;1.75;;;12.90;72.80;;;;;;9166432;19;20033;-75
2023/10/17 15:14:16;;;;;;;3.35;1.85;;;12.90;72.80;;;;;;9164226;19;20801;-76
2023/10/17 15:17:26;;;;;;;4.50;2.00;;;12.80;72.70;;;;;;9164340;19;20014;-74
2023/10/17 15:20:32;;;;;;;5.55;1.90;;;12.80;72.70;;;;;;9162383;19;20026;-73
2023/10/17 15:23:40;;;;;;;5.22;2.45;;;12.80;72.70;;;;;;9161749;19;20014;-74
2023/10/17 15:26:45;;;;;;;7.25;2.65;;;12.80;72.80;;;;;;9162449;19;20467;-72
2023/10/17 15:29:53;;;;;;;5.25;2.30;;;12.70;72.80;;;;;;9163466;19;20022;-72
2023/10/17 15:33:02;;;;;;;7.20;2.20;;;12.70;72.90;;;;;;9162699;19;20015;-72
2023/10/17 15:36:12;;;;;;;3.22;1.70;;;12.70;72.80;;;;;;9161289;19;20794;-75
2023/10/17 15:39:24;;;;;;;4.00;1.90;;;12.60;72.90;;;;;;9162402;19;20015;-73
2023/10/17 15:42:35;;;;;;;8.35;2.30;;;12.60;72.90;;;;;;9155119;19;20014;-74
2023/10/17 15:45:54;;;;;;;4.10;2.28;;;12.60;72.90;;;;;;9159575;19;20049;-74
2023/10/17 15:49:04;;;;;;;4.20;2.47;;;12.50;72.80;;;;;;9157471;19;20344;-72
2023/10/17 15:52:10;;;;;;;5.82;1.80;;;12.50;72.90;;;;;;9163276;19;20015;-72
2023/10/17 15:55:18;;;;;;;2.45;1.83;;;12.40;72.90;;;;;;9159734;19;20487;-73
2023/10/17 15:58:25;;;;;;;4.78;2.20;;;12.40;72.90;;;;;;9168872;19;20583;-73
2023/10/17 16:01:33;;;;;;;11.95;2.42;;;12.30;72.90;;;;;;9168399;19;20015;-74
2023/10/17 16:04:41;;;;;;;6.18;1.73;;;12.30;73.00;;;;;;9177128;19;20026;-71
2023/10/17 16:07:49;;;;;;;5.35;2.45;;;12.30;73.00;;;;;;9174706;19;20018;-73
2023/10/17 16:10:56;;;;;;;6.72;2.15;;;12.20;73.00;;;;;;9176597;19;20070;-72
2023/10/17 16:14:04;;;;;;;5.82;2.22;;;12.20;73.00;;;;;;9176103;19;20103;-71
2023/10/17 16:17:09;;;;;;;7.35;2.10;;;12.10;73.00;;;;;;9176932;19;20048;-72
2023/10/17 16:20:19;;;;;;;4.72;1.90;;;12.10;73.00;;;;;;9178451;19;20007;-72
2023/10/17 16:23:24;;;;;;;5.03;2.95;;;12.00;73.00;;;;;;9177541;19;20048;-72
2023/10/17 16:26:32;;;;;;;9.07;2.75;;;12.00;73.10;;;;;;9178586;19;20366;-73
2023/10/17 16:29:37;;;;;;;2.97;1.80;;;12.00;73.10;;;;;;9175729;19;20010;-71
2023/10/17 16:32:45;;;;;;;8.93;3.72;;;11.90;73.00;;;;;;9169445;19;20366;-72
2023/10/17 16:36:02;;;;;;;6.00;2.17;;;11.90;73.00;;;;;;9171209;19;20052;-72
2023/10/17 16:39:09;;;;;;;4.03;1.92;;;11.90;73.70;;;;;;9172536;19;20022;-71
2023/10/17 16:42:15;;;;;;;5.25;1.60;;;11.80;73.00;;;;;;9167092;19;20084;-71
2023/10/17 16:45:22;;;;;;;4.40;1.90;;;11.80;73.10;;;;;;9177082;19;20371;-72
2023/10/17 16:48:28;;;;;;;4.57;1.25;;;11.70;73.10;;;;;;9174128;19;20018;-72
2023/10/17 16:51:38;;;;;;;5.78;1.52;;;11.70;73.20;;;;;;9179633;19;20030;-73
2023/10/17 16:54:43;;;;;;;5.72;1.40;;;11.60;73.10;;;;;;9176117;19;20018;-72
2023/10/17 16:57:51;;;;;;;8.23;1.65;;;11.50;73.10;;;;;;9172819;19;20018;-71
2023/10/17 17:01:05;;;;;;;4.47;1.52;;;11.50;73.10;;;;;;9171595;19;20018;-73
2023/10/17 17:04:15;;;;;;;2.80;1.27;;;11.40;73.10;;;;;;9172205;19;20029;-71
2023/10/17 17:07:23;;;;;;;5.57;1.40;;;11.40;73.20;;;;;;9170170;19;20031;-72
2023/10/17 17:10:30;;;;;;;4.63;1.42;;;11.30;73.20;;;;;;9173948;19;20022;-71
2023/10/17 17:13:36;;;;;;;8.48;1.85;;;11.30;73.30;;;;;;9173935;19;20025;-74
2023/10/17 17:16:44;;;;;;;6.05;1.58;;;11.20;73.30;;;;;;9177406;19;20018;-71
2023/10/17 17:19:51;;;;;;;5.32;1.80;;;11.20;73.30;;;;;;9170727;19;20030;-70
2023/10/17 17:23:01;;;;;;;8.55;1.52;;;11.10;73.30;;;;;;9170497;19;20030;-73
2023/10/17 17:26:07;;;;;;;7.15;2.33;;;11.10;73.40;;;;;;9174523;19;20480;-73
2023/10/17 17:29:15;;;;;;;11.40;2.20;;;11.00;74.10;;;;;;9170850;19;20014;-74
2023/10/17 17:32:20;;;;;;;5.10;1.95;;;11.00;73.80;;;;;;9171705;19;20842;-70
2023/10/17 17:35:30;;;;;;;9.18;2.47;;;11.00;74.50;;;;;;9171117;19;20363;-71
2023/10/17 17:38:42;;;;;;;9.15;2.38;;;10.90;73.60;;;;;;9170110;19;20026;-74
2023/10/17 17:41:50;;;;;;;8.13;2.13;;;10.80;73.60;;;;;;9167726;19;20018;-72
2023/10/17 17:44:56;;;;;;;4.32;1.83;;;10.80;73.60;;;;;;9168566;19;21060;-72
2023/10/17 17:48:04;;;;;;;8.40;1.90;;;11.10;73.90;;;;;;9169463;19;20014;-72
2023/10/17 17:51:10;;;;;;;5.50;2.20;;;10.70;73.70;;;;;;9169504;19;20382;-74
2023/10/17 17:54:20;;;;;;;5.95;1.88;;;10.60;73.70;;;;;;9168580;19;20017;-74
2023/10/17 17:57:26;;;;;;;3.05;1.73;;;10.60;73.80;;;;;;9171393;19;20015;-73
2023/10/17 18:00:34;;;;;;;4.22;2.03;;;10.60;74.00;;;;;;9170814;19;20021;-74
2023/10/17 18:03:40;;;;;;;13.15;2.58;;;10.50;74.10;;;;;;9166808;19;20014;-72
2023/10/17 18:06:48;;;;;;;3.55;1.90;;;10.40;75.60;;;;;;9167627;19;20488;-73